sensor_id;sensor_type;location;lat;lon;timestamp;pressure;altitude;pressure_sealevel;temperature;humidity
30021;BME280;16861;52.294;7.760;2023-02-14T00:00:28;101723.81;;;8.97;60.27
30021;BME280;16861;52.294;7.760;2023-02-14T00:02:55;101719.47;;;8.96;60.50
30021;BME280;16861;52.294;7.760;2023-02-14T00:05:22;101721.22;;;8.96;60.13
30021;BME280;16861;52.294;7.760;2023-02-14T00:07:48;101719.47;;;8.96;60.61
30021;BME280;16861;52.294;7.760;2023-02-14T00:10:16;101722.97;;;8.97;60.12
30021;BME280;16861;52.294;7.760;2023-02-14T00:12:42;101713.38;;;8.94;60.01
30021;BME280;16861;52.294;7.760;2023-02-14T00:15:09;101716.91;;;8.93;60.02
30021;BME280;16861;52.294;7.760;2023-02-14T00:17:52;101707.34;;;8.89;60.53
30021;BME280;16861;52.294;7.760;2023-02-14T00:20:26;101701.25;;;8.87;60.43
30021;BME280;16861;52.294;7.760;2023-02-14T00:22:53;101702.19;;;8.84;60.74
30021;BME280;16861;52.294;7.760;2023-02-14T00:25:19;101705.75;;;8.82;60.96
30021;BME280;16861;52.294;7.760;2023-02-14T00:27:46;101703.16;;;8.79;60.90
30021;BME280;16861;52.294;7.760;2023-02-14T00:30:12;101705.78;;;8.79;61.25
30021;BME280;16861;52.294;7.760;2023-02-14T00:32:40;101709.31;;;8.78;61.64
30021;BME280;16861;52.294;7.760;2023-02-14T00:35:08;101704.09;;;8.76;61.51
30021;BME280;16861;52.294;7.760;2023-02-14T00:37:36;101703.22;;;8.76;61.80
30021;BME280;16861;52.294;7.760;2023-02-14T00:40:05;101705.84;;;8.76;61.80
30021;BME280;16861;52.294;7.760;2023-02-14T00:42:32;101702.34;;;8.75;61.61
30021;BME280;16861;52.294;7.760;2023-02-14T00:44:58;101709.34;;;8.76;61.54
30021;BME280;16861;52.294;7.760;2023-02-14T00:47:25;101702.31;;;8.77;61.63
30021;BME280;16861;52.294;7.760;2023-02-14T00:49:51;101699.69;;;8.77;61.69
30021;BME280;16861;52.294;7.760;2023-02-14T00:52:18;101704.00;;;8.79;61.93
30021;BME280;16861;52.294;7.760;2023-02-14T00:54:44;101707.50;;;8.81;62.02
30021;BME280;16861;52.294;7.760;2023-02-14T00:57:14;101709.22;;;8.82;62.20
30021;BME280;16861;52.294;7.760;2023-02-14T00:59:40;101708.28;;;8.85;61.55
30021;BME280;16861;52.294;7.760;2023-02-14T01:02:07;101711.78;;;8.85;61.44
30021;BME280;16861;52.294;7.760;2023-02-14T01:04:33;101712.63;;;8.88;61.38
30021;BME280;16861;52.294;7.760;2023-02-14T01:07:00;101714.41;;;8.85;61.37
30021;BME280;16861;52.294;7.760;2023-02-14T01:09:26;101720.56;;;8.86;61.26
30021;BME280;16861;52.294;7.760;2023-02-14T01:11:53;101715.31;;;8.84;61.07
30021;BME280;16861;52.294;7.760;2023-02-14T01:14:19;101718.88;;;8.82;60.65
30021;BME280;16861;52.294;7.760;2023-02-14T01:16:46;101724.16;;;8.79;60.54
30021;BME280;16861;52.294;7.760;2023-02-14T01:19:12;101726.84;;;8.74;60.79
30021;BME280;16861;52.294;7.760;2023-02-14T01:21:40;101726.09;;;8.69;60.85
30021;BME280;16861;52.294;7.760;2023-02-14T01:24:07;101725.31;;;8.64;60.87
30021;BME280;16861;52.294;7.760;2023-02-14T01:26:34;101730.63;;;8.59;61.10
30021;BME280;16861;52.294;7.760;2023-02-14T01:29:02;101724.59;;;8.54;61.43
30021;BME280;16861;52.294;7.760;2023-02-14T01:31:31;101723.78;;;8.47;61.77
30021;BME280;16861;52.294;7.760;2023-02-14T01:33:58;101728.22;;;8.43;61.90
30021;BME280;16861;52.294;7.760;2023-02-14T01:36:29;101726.53;;;8.39;62.76
30021;BME280;16861;52.294;7.760;2023-02-14T01:38:59;101716.97;;;8.37;62.98
30021;BME280;16861;52.294;7.760;2023-02-14T01:41:30;101718.72;;;8.36;62.81
30021;BME280;16861;52.294;7.760;2023-02-14T01:46:35;101711.75;;;8.33;63.86
30021;BME280;16861;52.294;7.760;2023-02-14T01:49:12;101716.13;;;8.33;64.19
30021;BME280;16861;52.294;7.760;2023-02-14T01:51:44;101712.59;;;8.35;63.77
30021;BME280;16861;52.294;7.760;2023-02-14T01:54:13;101706.44;;;8.38;63.42
30021;BME280;16861;52.294;7.760;2023-02-14T01:56:43;101716.03;;;8.41;63.78
30021;BME280;16861;52.294;7.760;2023-02-14T01:59:14;101707.22;;;8.43;63.61
30021;BME280;16861;52.294;7.760;2023-02-14T02:01:44;101710.66;;;8.47;63.10
30021;BME280;16861;52.294;7.760;2023-02-14T02:04:14;101708.91;;;8.49;63.20
30021;BME280;16861;52.294;7.760;2023-02-14T02:06:46;101714.09;;;8.51;63.64
30021;BME280;16861;52.294;7.760;2023-02-14T02:09:30;101708.00;;;8.50;64.03
30021;BME280;16861;52.294;7.760;2023-02-14T02:11:58;101705.31;;;8.55;62.87
30021;BME280;16861;52.294;7.760;2023-02-14T02:14:25;101703.53;;;8.57;62.94
30021;BME280;16861;52.294;7.760;2023-02-14T02:43:16;101682.66;;;8.47;63.38
30021;BME280;16861;52.294;7.760;2023-02-14T02:46:21;101679.16;;;8.47;63.27
30021;BME280;16861;52.294;7.760;2023-02-14T02:52:32;101680.88;;;8.48;63.65
30021;BME280;16861;52.294;7.760;2023-02-14T02:55:43;101682.59;;;8.51;63.31
30021;BME280;16861;52.294;7.760;2023-02-14T03:01:25;101675.59;;;8.53;62.36
30021;BME280;16861;52.294;7.760;2023-02-14T03:03:58;101666.84;;;8.51;62.82
30021;BME280;16861;52.294;7.760;2023-02-14T03:06:44;101663.34;;;8.52;62.24
30021;BME280;16861;52.294;7.760;2023-02-14T03:12:05;101660.78;;;8.48;63.06
30021;BME280;16861;52.294;7.760;2023-02-14T03:14:44;101662.50;;;8.50;62.63
30021;BME280;16861;52.294;7.760;2023-02-14T03:17:25;101655.56;;;8.45;62.77
30021;BME280;16861;52.294;7.760;2023-02-14T03:28:01;101651.25;;;8.43;62.85
30021;BME280;16861;52.294;7.760;2023-02-14T03:30:35;101650.41;;;8.42;62.49
30021;BME280;16861;52.294;7.760;2023-02-14T03:33:55;101646.91;;;8.40;62.60
30021;BME280;16861;52.294;7.760;2023-02-14T03:36:09;101643.38;;;8.41;62.11
30021;BME280;16861;52.294;7.760;2023-02-14T03:39:02;101643.50;;;8.35;62.47
30021;BME280;16861;52.294;7.760;2023-02-14T03:41:36;101637.38;;;8.36;62.58
30021;BME280;16861;52.294;7.760;2023-02-14T03:44:08;101635.63;;;8.35;62.37
30021;BME280;16861;52.294;7.760;2023-02-14T03:46:41;101640.00;;;8.34;62.29
30021;BME280;16861;52.294;7.760;2023-02-14T03:49:14;101639.16;;;8.34;62.21
30021;BME280;16861;52.294;7.760;2023-02-14T03:51:45;101639.19;;;8.32;62.32
30021;BME280;16861;52.294;7.760;2023-02-14T03:54:16;101635.69;;;8.32;62.27
30021;BME280;16861;52.294;7.760;2023-02-14T03:56:47;101631.38;;;8.28;62.05
30021;BME280;16861;52.294;7.760;2023-02-14T03:59:18;101630.56;;;8.26;61.61
30021;BME280;16861;52.294;7.760;2023-02-14T04:02:26;101631.53;;;8.18;62.37
30021;BME280;16861;52.294;7.760;2023-02-14T04:04:56;101634.16;;;8.18;61.94
30021;BME280;16861;52.294;7.760;2023-02-14T04:07:24;101625.47;;;8.16;62.02
30021;BME280;16861;52.294;7.760;2023-02-14T04:09:51;101628.13;;;8.15;62.26
30021;BME280;16861;52.294;7.760;2023-02-14T04:12:18;101625.50;;;8.13;61.98
30021;BME280;16861;52.294;7.760;2023-02-14T04:15:03;101628.13;;;8.13;62.09
30021;BME280;16861;52.294;7.760;2023-02-14T04:17:30;101626.41;;;8.12;61.92
30021;BME280;16861;52.294;7.760;2023-02-14T04:20:15;101624.66;;;8.11;61.71
30021;BME280;16861;52.294;7.760;2023-02-14T04:22:41;101622.09;;;8.10;61.81
30021;BME280;16861;52.294;7.760;2023-02-14T04:25:08;101623.88;;;8.06;61.80
30021;BME280;16861;52.294;7.760;2023-02-14T04:27:34;101623.06;;;8.02;62.07
30021;BME280;16861;52.294;7.760;2023-02-14T04:30:01;101630.94;;;8.01;62.09
30021;BME280;16861;52.294;7.760;2023-02-14T04:32:28;101631.00;;;7.98;62.64
30021;BME280;16861;52.294;7.760;2023-02-14T04:34:54;101625.81;;;7.94;62.55
30021;BME280;16861;52.294;7.760;2023-02-14T04:37:21;101625.84;;;7.93;62.72
30021;BME280;16861;52.294;7.760;2023-02-14T04:39:47;101619.72;;;7.92;62.86
30021;BME280;16861;52.294;7.760;2023-02-14T04:42:14;101627.56;;;7.92;62.61
30021;BME280;16861;52.294;7.760;2023-02-14T04:44:41;101628.50;;;7.90;62.55
30021;BME280;16861;52.294;7.760;2023-02-14T04:47:07;101625.00;;;7.89;62.93
30021;BME280;16861;52.294;7.760;2023-02-14T04:49:34;101619.75;;;7.89;62.81
30021;BME280;16861;52.294;7.760;2023-02-14T04:52:01;101619.78;;;7.88;62.85
30021;BME280;16861;52.294;7.760;2023-02-14T04:54:28;101607.56;;;7.87;62.67
30021;BME280;16861;52.294;7.760;2023-02-14T04:56:55;101610.19;;;7.85;62.78
30021;BME280;16861;52.294;7.760;2023-02-14T04:59:21;101611.09;;;7.84;62.34
30021;BME280;16861;52.294;7.760;2023-02-14T05:01:50;101610.28;;;7.82;62.54
30021;BME280;16861;52.294;7.760;2023-02-14T05:04:17;101612.03;;;7.80;62.72
30021;BME280;16861;52.294;7.760;2023-02-14T05:06:44;101603.34;;;7.76;62.44
30021;BME280;16861;52.294;7.760;2023-02-14T05:09:10;101598.13;;;7.75;62.84
30021;BME280;16861;52.294;7.760;2023-02-14T05:11:37;101600.75;;;7.75;62.59
30021;BME280;16861;52.294;7.760;2023-02-14T05:14:03;101603.38;;;7.75;62.66
30021;BME280;16861;52.294;7.760;2023-02-14T05:16:30;101601.66;;;7.74;62.47
30021;BME280;16861;52.294;7.760;2023-02-14T05:18:56;101607.75;;;7.74;62.23
30021;BME280;16861;52.294;7.760;2023-02-14T05:21:23;101597.31;;;7.73;62.37
30021;BME280;16861;52.294;7.760;2023-02-14T05:23:49;101600.81;;;7.70;62.41
30021;BME280;16861;52.294;7.760;2023-02-14T05:26:16;101604.31;;;7.69;62.32
30021;BME280;16861;52.294;7.760;2023-02-14T05:28:42;101603.50;;;7.67;62.48
30021;BME280;16861;52.294;7.760;2023-02-14T05:31:09;101605.25;;;7.66;62.24
30021;BME280;16861;52.294;7.760;2023-02-14T05:33:36;101601.78;;;7.64;62.07
30021;BME280;16861;52.294;7.760;2023-02-14T05:36:02;101606.16;;;7.64;62.55
30021;BME280;16861;52.294;7.760;2023-02-14T05:38:29;101602.66;;;7.63;62.32
30021;BME280;16861;52.294;7.760;2023-02-14T05:40:56;101611.38;;;7.65;62.43
30021;BME280;16861;52.294;7.760;2023-02-14T05:43:23;101614.03;;;7.64;62.34
30021;BME280;16861;52.294;7.760;2023-02-14T05:45:50;101617.47;;;7.66;62.21
30021;BME280;16861;52.294;7.760;2023-02-14T05:48:16;101614.91;;;7.64;62.16
30021;BME280;16861;52.294;7.760;2023-02-14T05:50:43;101619.25;;;7.65;62.27
30021;BME280;16861;52.294;7.760;2023-02-14T05:53:11;101614.03;;;7.64;62.19
30021;BME280;16861;52.294;7.760;2023-02-14T05:55:38;101614.91;;;7.64;62.08
30021;BME280;16861;52.294;7.760;2023-02-14T05:58:05;101614.91;;;7.64;62.25
30021;BME280;16861;52.294;7.760;2023-02-14T06:00:32;101618.38;;;7.63;62.04
30021;BME280;16861;52.294;7.760;2023-02-14T06:03:00;101619.28;;;7.62;62.09
30021;BME280;16861;52.294;7.760;2023-02-14T06:05:26;101622.81;;;7.61;62.12
30021;BME280;16861;52.294;7.760;2023-02-14T06:07:53;101626.31;;;7.60;62.31
30021;BME280;16861;52.294;7.760;2023-02-14T06:10:20;101622.84;;;7.58;62.08
30021;BME280;16861;52.294;7.760;2023-02-14T06:12:48;101621.13;;;7.57;62.06
30021;BME280;16861;52.294;7.760;2023-02-14T06:15:15;101632.50;;;7.56;61.93
30021;BME280;16861;52.294;7.760;2023-02-14T06:17:42;101628.13;;;7.55;62.28
30021;BME280;16861;52.294;7.760;2023-02-14T06:20:09;101628.13;;;7.55;62.42
30021;BME280;16861;52.294;7.760;2023-02-14T06:22:37;101630.72;;;7.55;62.51
30021;BME280;16861;52.294;7.760;2023-02-14T06:25:04;101629.00;;;7.55;62.03
30021;BME280;16861;52.294;7.760;2023-02-14T06:27:32;101632.50;;;7.56;62.16
30021;BME280;16861;52.294;7.760;2023-02-14T06:29:59;101629.88;;;7.56;62.36
30021;BME280;16861;52.294;7.760;2023-02-14T06:32:25;101630.72;;;7.56;62.14
30021;BME280;16861;52.294;7.760;2023-02-14T06:34:52;101627.22;;;7.58;62.46
30021;BME280;16861;52.294;7.760;2023-02-14T06:37:18;101630.69;;;7.58;62.13
30021;BME280;16861;52.294;7.760;2023-02-14T06:39:45;101633.31;;;7.58;62.07
30021;BME280;16861;52.294;7.760;2023-02-14T06:42:12;101625.47;;;7.58;61.82
30021;BME280;16861;52.294;7.760;2023-02-14T06:44:38;101623.72;;;7.59;62.08
30021;BME280;16861;52.294;7.760;2023-02-14T06:47:05;101625.47;;;7.58;62.03
30021;BME280;16861;52.294;7.760;2023-02-14T06:49:31;101614.13;;;7.58;62.15
30021;BME280;16861;52.294;7.760;2023-02-14T06:51:58;101615.00;;;7.56;62.00
30021;BME280;16861;52.294;7.760;2023-02-14T06:54:24;101623.75;;;7.55;61.97
30021;BME280;16861;52.294;7.760;2023-02-14T06:56:51;101622.91;;;7.53;61.74
30021;BME280;16861;52.294;7.760;2023-02-14T06:59:17;101627.28;;;7.53;61.62
30021;BME280;16861;52.294;7.760;2023-02-14T07:01:44;101629.91;;;7.51;61.68
30021;BME280;16861;52.294;7.760;2023-02-14T07:04:10;101631.72;;;7.49;61.71
30021;BME280;16861;52.294;7.760;2023-02-14T07:06:37;101633.47;;;7.47;61.85
30021;BME280;16861;52.294;7.760;2023-02-14T07:09:03;101636.09;;;7.46;61.77
30021;BME280;16861;52.294;7.760;2023-02-14T07:11:30;101637.91;;;7.43;62.05
30021;BME280;16861;52.294;7.760;2023-02-14T07:13:57;101639.66;;;7.41;61.67
30021;BME280;16861;52.294;7.760;2023-02-14T07:16:24;101638.81;;;7.39;61.81
30021;BME280;16861;52.294;7.760;2023-02-14T07:18:51;101642.34;;;7.38;61.69
30021;BME280;16861;52.294;7.760;2023-02-14T07:21:17;101650.19;;;7.38;62.13
30021;BME280;16861;52.294;7.760;2023-02-14T07:23:44;101644.06;;;7.38;61.97
30021;BME280;16861;52.294;7.760;2023-02-14T07:26:15;101647.56;;;7.38;62.01
30021;BME280;16861;52.294;7.760;2023-02-14T07:28:44;101646.69;;;7.39;62.46
30021;BME280;16861;52.294;7.760;2023-02-14T07:31:11;101649.28;;;7.42;62.07
30021;BME280;16861;52.294;7.760;2023-02-14T07:33:38;101642.25;;;7.45;62.24
30021;BME280;16861;52.294;7.760;2023-02-14T07:36:06;101643.97;;;7.46;62.17
30021;BME280;16861;52.294;7.760;2023-02-14T07:38:34;101629.09;;;7.48;62.05
30021;BME280;16861;52.294;7.760;2023-02-14T07:41:01;101636.94;;;7.51;61.81
30021;BME280;16861;52.294;7.760;2023-02-14T07:43:27;101638.66;;;7.52;62.12
30021;BME280;16861;52.294;7.760;2023-02-14T07:45:54;101631.63;;;7.54;62.20
30021;BME280;16861;52.294;7.760;2023-02-14T07:48:21;101635.97;;;7.56;62.41
30021;BME280;16861;52.294;7.760;2023-02-14T07:50:47;101633.31;;;7.60;62.42
30021;BME280;16861;52.294;7.760;2023-02-14T07:53:14;101633.28;;;7.61;62.33
30021;BME280;16861;52.294;7.760;2023-02-14T07:55:40;101633.25;;;7.64;62.40
30021;BME280;16861;52.294;7.760;2023-02-14T07:58:07;101638.44;;;7.66;62.09
30021;BME280;16861;52.294;7.760;2023-02-14T08:00:33;101635.78;;;7.69;62.49
30021;BME280;16861;52.294;7.760;2023-02-14T08:03:00;101634.88;;;7.72;62.44
30021;BME280;16861;52.294;7.760;2023-02-14T08:05:26;101640.06;;;7.75;62.25
30021;BME280;16861;52.294;7.760;2023-02-14T08:07:53;101630.41;;;7.77;62.32
30021;BME280;16861;52.294;7.760;2023-02-14T08:10:19;101631.25;;;7.82;62.26
30021;BME280;16861;52.294;7.760;2023-02-14T08:12:46;101633.78;;;7.85;62.52
30021;BME280;16861;52.294;7.760;2023-02-14T08:15:32;101638.09;;;7.89;62.49
30021;BME280;16861;52.294;7.760;2023-02-14T08:18:19;101635.41;;;7.95;62.39
30021;BME280;16861;52.294;7.760;2023-02-14T08:20:48;101638.78;;;8.02;62.46
30021;BME280;16861;52.294;7.760;2023-02-14T08:23:16;101631.72;;;8.06;62.07
30021;BME280;16861;52.294;7.760;2023-02-14T08:25:43;101636.91;;;8.12;62.30
30021;BME280;16861;52.294;7.760;2023-02-14T08:28:10;101636.78;;;8.18;62.19
30021;BME280;16861;52.294;7.760;2023-02-14T08:30:39;101627.06;;;8.25;62.37
30021;BME280;16861;52.294;7.760;2023-02-14T08:33:05;101634.84;;;8.31;62.22
30021;BME280;16861;52.294;7.760;2023-02-14T08:35:32;101637.34;;;8.38;61.79
30021;BME280;16861;52.294;7.760;2023-02-14T08:37:59;101632.03;;;8.42;62.07
30021;BME280;16861;52.294;7.760;2023-02-14T08:40:26;101636.28;;;8.48;61.78
30021;BME280;16861;52.294;7.760;2023-02-14T08:42:53;101637.09;;;8.52;61.90
30021;BME280;16861;52.294;7.760;2023-02-14T08:45:20;101639.63;;;8.58;61.63
30021;BME280;16861;52.294;7.760;2023-02-14T08:47:47;101644.81;;;8.63;61.62
30021;BME280;16861;52.294;7.760;2023-02-14T08:50:15;101640.38;;;8.66;61.91
30021;BME280;16861;52.294;7.760;2023-02-14T08:52:42;101644.63;;;8.72;61.34
30021;BME280;16861;52.294;7.760;2023-02-14T08:55:11;101643.66;;;8.78;61.16
30021;BME280;16861;52.294;7.760;2023-02-14T08:57:38;101645.38;;;8.80;61.31
30021;BME280;16861;52.294;7.760;2023-02-14T09:00:05;101641.78;;;8.84;60.96
30021;BME280;16861;52.294;7.760;2023-02-14T09:02:32;101641.69;;;8.89;61.13
30021;BME280;16861;52.294;7.760;2023-02-14T09:04:59;101639.00;;;8.92;61.13
30021;BME280;16861;52.294;7.760;2023-02-14T09:07:26;101638.06;;;8.96;61.14
30021;BME280;16861;52.294;7.760;2023-02-14T09:09:52;101633.59;;;9.00;61.32
30021;BME280;16861;52.294;7.760;2023-02-14T09:12:19;101633.50;;;9.05;61.19
30021;BME280;16861;52.294;7.760;2023-02-14T09:14:45;101630.81;;;9.08;61.08
30021;BME280;16861;52.294;7.760;2023-02-14T09:17:12;101631.63;;;9.11;60.92
30021;BME280;16861;52.294;7.760;2023-02-14T09:19:40;101631.47;;;9.18;60.82
30021;BME280;16861;52.294;7.760;2023-02-14T09:22:07;101628.78;;;9.21;60.65
30021;BME280;16861;52.294;7.760;2023-02-14T09:24:36;101632.19;;;9.26;60.68
30021;BME280;16861;52.294;7.760;2023-02-14T09:27:03;101628.56;;;9.32;60.90
30021;BME280;16861;52.294;7.760;2023-02-14T09:29:30;101628.47;;;9.36;60.88
30021;BME280;16861;52.294;7.760;2023-02-14T09:31:58;101628.38;;;9.41;60.57
30021;BME280;16861;52.294;7.760;2023-02-14T09:34:26;101626.50;;;9.46;60.53
30021;BME280;16861;52.294;7.760;2023-02-14T09:36:53;101626.38;;;9.52;60.65
30021;BME280;16861;52.294;7.760;2023-02-14T09:39:38;101627.94;;;9.60;60.59
30021;BME280;16861;52.294;7.760;2023-02-14T09:44:47;101627.69;;;9.71;60.38
30021;BME280;16861;52.294;7.760;2023-02-14T09:48:02;101627.59;;;9.75;60.27
30021;BME280;16861;52.294;7.760;2023-02-14T09:50:39;101621.22;;;9.86;59.80
30021;BME280;16861;52.294;7.760;2023-02-14T09:53:28;101624.66;;;9.89;59.94
30021;BME280;16861;52.294;7.760;2023-02-14T09:56:11;101625.38;;;9.96;59.91
30021;BME280;16861;52.294;7.760;2023-02-14T09:58:58;101619.91;;;10.04;60.15
30021;BME280;16861;52.294;7.760;2023-02-14T10:01:35;101620.59;;;10.12;60.31
30021;BME280;16861;52.294;7.760;2023-02-14T10:07:16;101614.94;;;10.28;59.98
30021;BME280;16861;52.294;7.760;2023-02-14T10:10:02;101612.84;;;10.41;60.34
30021;BME280;16861;52.294;7.760;2023-02-14T10:12:38;101613.56;;;10.48;60.16
30021;BME280;16861;52.294;7.760;2023-02-14T10:15:19;101616.91;;;10.54;60.24
30021;BME280;16861;52.294;7.760;2023-02-14T10:18:04;101607.00;;;10.64;59.91
30021;BME280;16861;52.294;7.760;2023-02-14T10:20:39;101611.97;;;10.75;60.19
30021;BME280;16861;52.294;7.760;2023-02-14T10:26:38;101596.44;;;10.98;58.95
30021;BME280;16861;52.294;7.760;2023-02-14T10:29:15;101599.63;;;11.07;59.02
30021;BME280;16861;52.294;7.760;2023-02-14T10:31:47;101607.13;;;11.21;59.14
30021;BME280;16861;52.294;7.760;2023-02-14T10:47:57;101590.16;;;11.88;58.87
30021;BME280;16861;52.294;7.760;2023-02-14T10:50:49;101589.84;;;11.97;58.12
30021;BME280;16861;52.294;7.760;2023-02-14T10:53:40;101586.75;;;12.11;57.80
30021;BME280;16861;52.294;7.760;2023-02-14T10:56:21;101589.03;;;12.22;57.67
30021;BME280;16861;52.294;7.760;2023-02-14T10:58:52;101580.69;;;12.34;57.50
30021;BME280;16861;52.294;7.760;2023-02-14T11:01:21;101581.13;;;12.47;57.98
30021;BME280;16861;52.294;7.760;2023-02-14T11:03:56;101578.09;;;12.58;57.19
30021;BME280;16861;52.294;7.760;2023-02-14T11:06:29;101569.69;;;12.72;57.62
30021;BME280;16861;52.294;7.760;2023-02-14T11:08:56;101570.94;;;12.86;57.82
30021;BME280;16861;52.294;7.760;2023-02-14T11:11:33;101575.84;;;12.97;55.72
30021;BME280;16861;52.294;7.760;2023-02-14T11:14:25;101570.88;;;13.11;55.10
30021;BME280;16861;52.294;7.760;2023-02-14T11:16:52;101565.84;;;13.27;56.65
30021;BME280;16861;52.294;7.760;2023-02-14T11:19:28;101554.72;;;13.41;56.37
30021;BME280;16861;52.294;7.760;2023-02-14T11:21:57;101558.13;;;13.67;58.71
30021;BME280;16861;52.294;7.760;2023-02-14T11:24:31;101556.72;;;14.02;59.07
30021;BME280;16861;52.294;7.760;2023-02-14T11:27:01;101551.97;;;14.50;60.86
30021;BME280;16861;52.294;7.760;2023-02-14T11:32:19;101549.69;;;15.75;55.47
30021;BME280;16861;52.294;7.760;2023-02-14T11:35:01;101543.94;;;16.38;55.73
30021;BME280;16861;52.294;7.760;2023-02-14T11:37:37;101551.13;;;16.86;52.36
30021;BME280;16861;52.294;7.760;2023-02-14T11:40:05;101538.03;;;17.15;52.36
30021;BME280;16861;52.294;7.760;2023-02-14T11:42:43;101528.22;;;17.31;50.19
30021;BME280;16861;52.294;7.760;2023-02-14T11:45:29;101529.06;;;17.48;50.36
30021;BME280;16861;52.294;7.760;2023-02-14T11:48:24;101527.19;;;17.81;50.40
30021;BME280;16861;52.294;7.760;2023-02-14T11:51:07;101526.72;;;18.34;53.25
30021;BME280;16861;52.294;7.760;2023-02-14T11:53:56;101523.91;;;18.94;51.16
30021;BME280;16861;52.294;7.760;2023-02-14T11:56:43;101514.78;;;19.66;51.47
30021;BME280;16861;52.294;7.760;2023-02-14T11:59:13;101516.91;;;20.40;52.46
30021;BME280;16861;52.294;7.760;2023-02-14T12:01:46;101505.50;;;21.13;51.57
30021;BME280;16861;52.294;7.760;2023-02-14T12:04:17;101490.56;;;21.82;47.64
30021;BME280;16861;52.294;7.760;2023-02-14T12:06:44;101482.78;;;22.48;48.62
30021;BME280;16861;52.294;7.760;2023-02-14T12:11:58;101487.00;;;23.62;41.52
30021;BME280;16861;52.294;7.760;2023-02-14T12:14:28;101478.63;;;24.07;41.03
30021;BME280;16861;52.294;7.760;2023-02-14T12:19:41;101481.34;;;24.90;41.34
30021;BME280;16861;52.294;7.760;2023-02-14T12:22:18;101470.56;;;25.29;40.59
30021;BME280;16861;52.294;7.760;2023-02-14T12:25:00;101469.97;;;25.75;39.91
30021;BME280;16861;52.294;7.760;2023-02-14T12:27:40;101464.84;;;26.20;39.04
30021;BME280;16861;52.294;7.760;2023-02-14T12:30:15;101456.81;;;26.66;38.32
30021;BME280;16861;52.294;7.760;2023-02-14T12:32:50;101450.63;;;27.02;36.66
30021;BME280;16861;52.294;7.760;2023-02-14T12:38:29;101457.47;;;27.59;36.59
30021;BME280;16861;52.294;7.760;2023-02-14T12:43:56;101455.03;;;28.01;34.67
30021;BME280;16861;52.294;7.760;2023-02-14T12:59:23;101424.06;;;28.30;32.79
30021;BME280;16861;52.294;7.760;2023-02-14T13:01:34;101415.63;;;28.33;31.38
30021;BME280;16861;52.294;7.760;2023-02-14T13:06:52;101418.66;;;28.38;31.05
30021;BME280;16861;52.294;7.760;2023-02-14T13:09:57;101406.72;;;28.22;33.46
30021;BME280;16861;52.294;7.760;2023-02-14T13:12:37;101399.91;;;28.10;31.06
30021;BME280;16861;52.294;7.760;2023-02-14T13:17:55;101406.41;;;27.56;28.73
30021;BME280;16861;52.294;7.760;2023-02-14T13:20:40;101409.28;;;27.10;29.20
30021;BME280;16861;52.294;7.760;2023-02-14T13:23:15;101404.94;;;26.44;29.22
30021;BME280;16861;52.294;7.760;2023-02-14T13:25:50;101395.84;;;25.79;30.25
30021;BME280;16861;52.294;7.760;2023-02-14T13:28:18;101388.59;;;25.22;30.51
30021;BME280;16861;52.294;7.760;2023-02-14T13:30:45;101385.19;;;24.70;31.60
30021;BME280;16861;52.294;7.760;2023-02-14T13:33:28;101393.59;;;24.26;31.15
30021;BME280;16861;52.294;7.760;2023-02-14T13:36:02;101390.50;;;23.90;32.10
30021;BME280;16861;52.294;7.760;2023-02-14T13:38:31;101381.84;;;23.55;32.77
30021;BME280;16861;52.294;7.760;2023-02-14T13:40:59;101385.31;;;23.24;32.72
30021;BME280;16861;52.294;7.760;2023-02-14T13:43:46;101381.66;;;22.93;33.83
30021;BME280;16861;52.294;7.760;2023-02-14T13:49:00;101374.34;;;22.62;33.50
30021;BME280;16861;52.294;7.760;2023-02-14T13:51:49;101372.44;;;22.41;34.22
30021;BME280;16861;52.294;7.760;2023-02-14T13:54:45;101370.75;;;22.29;34.82
30021;BME280;16861;52.294;7.760;2023-02-14T13:57:33;101371.97;;;22.24;35.23
30021;BME280;16861;52.294;7.760;2023-02-14T14:02:46;101368.19;;;22.27;34.37
30021;BME280;16861;52.294;7.760;2023-02-14T14:05:46;101358.94;;;22.20;35.44
30021;BME280;16861;52.294;7.760;2023-02-14T14:10:48;101363.44;;;22.31;35.00
30021;BME280;16861;52.294;7.760;2023-02-14T14:18:50;101361.53;;;22.87;35.59
30021;BME280;16861;52.294;7.760;2023-02-14T14:21:36;101357.72;;;23.22;34.37
30021;BME280;16861;52.294;7.760;2023-02-14T14:24:21;101355.00;;;23.65;34.55
30021;BME280;16861;52.294;7.760;2023-02-14T14:26:58;101354.38;;;24.14;34.21
30021;BME280;16861;52.294;7.760;2023-02-14T14:29:33;101355.28;;;24.64;33.93
30021;BME280;16861;52.294;7.760;2023-02-14T14:32:17;101347.22;;;25.13;33.99
30021;BME280;16861;52.294;7.760;2023-02-14T14:34:52;101343.13;;;25.67;34.00
30021;BME280;16861;52.294;7.760;2023-02-14T14:37:22;101349.09;;;26.17;33.09
30021;BME280;16861;52.294;7.760;2023-02-14T14:39:58;101340.97;;;26.63;31.92
30021;BME280;16861;52.294;7.760;2023-02-14T14:42:29;101331.38;;;27.05;31.24
30021;BME280;16861;52.294;7.760;2023-02-14T14:45:04;101337.22;;;27.45;30.96
30021;BME280;16861;52.294;7.760;2023-02-14T14:47:44;101329.47;;;27.85;31.29
30021;BME280;16861;52.294;7.760;2023-02-14T14:52:47;101324.56;;;28.57;29.73
30021;BME280;16861;52.294;7.760;2023-02-14T14:55:26;101328.97;;;28.83;29.58
30021;BME280;16861;52.294;7.760;2023-02-14T14:58:05;101327.97;;;29.09;28.69
30021;BME280;16861;52.294;7.760;2023-02-14T15:00:36;101323.53;;;29.24;28.73
30021;BME280;16861;52.294;7.760;2023-02-14T15:08:35;101330.06;;;29.55;29.37
30021;BME280;16861;52.294;7.760;2023-02-14T15:11:23;101322.22;;;29.69;28.13
30021;BME280;16861;52.294;7.760;2023-02-14T15:16:48;101312.47;;;29.83;26.53
30021;BME280;16861;52.294;7.760;2023-02-14T15:22:05;101310.31;;;29.21;26.05
30021;BME280;16861;52.294;7.760;2023-02-14T15:24:33;101311.53;;;28.69;25.87
30021;BME280;16861;52.294;7.760;2023-02-14T15:27:03;101307.34;;;27.98;25.58
30021;BME280;16861;52.294;7.760;2023-02-14T15:29:32;101297.84;;;27.16;25.78